createdAt,value
2019-06-10T00:01:55.533Z,1.53
2019-06-10T00:04:24.880Z,1.87
2019-06-10T00:06:54.259Z,1.43
2019-06-10T00:09:23.629Z,1.30
2019-06-10T00:11:53.014Z,1.73
2019-06-10T00:14:22.388Z,1.60
2019-06-10T00:16:52.233Z,1.60
2019-06-10T00:19:21.936Z,1.50
2019-06-10T00:21:51.270Z,1.63
2019-06-10T00:24:21.347Z,1.63
2019-06-10T00:26:51.176Z,2.00
2019-06-10T00:29:22.276Z,1.80
2019-06-10T00:31:51.883Z,2.00
2019-06-10T00:34:21.428Z,1.57
2019-06-10T00:36:51.079Z,1.70
2019-06-10T00:39:22.173Z,1.60
2019-06-10T00:41:52.279Z,1.90
2019-06-10T00:44:21.770Z,2.90
2019-06-10T00:46:51.778Z,1.70
2019-06-10T00:49:21.513Z,1.80
2019-06-10T00:51:51.180Z,1.70
2019-06-10T00:54:21.901Z,1.70
2019-06-10T00:56:51.880Z,1.53
2019-06-10T00:59:22.250Z,1.47
2019-06-10T01:01:52.040Z,1.63
2019-06-10T01:04:21.826Z,1.77
2019-06-10T01:06:51.745Z,1.80
2019-06-10T01:09:21.930Z,1.63
2019-06-10T01:11:52.036Z,1.70
2019-06-10T01:14:21.802Z,1.90
2019-06-10T01:16:51.418Z,1.77
2019-06-10T01:19:21.931Z,1.70
2019-06-10T01:21:51.517Z,1.90
2019-06-10T01:24:22.321Z,1.77
2019-06-10T01:26:51.936Z,1.80
2019-06-10T01:29:21.346Z,1.57
2019-06-10T01:31:51.421Z,2.20
2019-06-10T01:34:21.737Z,1.80
2019-06-10T01:36:51.362Z,1.70
2019-06-10T01:39:22.663Z,1.67
2019-06-10T01:41:51.859Z,1.93
2019-06-10T01:44:22.023Z,1.57
2019-06-10T01:46:52.584Z,1.60
2019-06-10T01:49:21.968Z,1.57
2019-06-10T01:51:51.727Z,1.77
2019-06-10T01:54:21.502Z,1.60
2019-06-10T01:56:51.331Z,1.47
2019-06-10T01:59:21.970Z,1.30
2019-06-10T02:02:00.963Z,1.10
2019-06-10T02:04:32.035Z,1.40
2019-06-10T02:07:01.764Z,1.40
2019-06-10T02:09:31.234Z,1.20
2019-06-10T02:12:02.200Z,1.37
2019-06-10T02:14:32.046Z,1.47
2019-06-10T02:17:01.454Z,1.40
2019-06-10T02:19:31.304Z,1.10
2019-06-10T02:22:01.447Z,1.47
2019-06-10T02:24:31.705Z,1.37
2019-06-10T02:27:01.266Z,1.50
2019-06-10T02:29:30.968Z,1.40
2019-06-10T02:32:04.526Z,1.70
2019-06-10T02:34:36.644Z,1.63
2019-06-10T02:37:04.685Z,1.60
2019-06-10T02:39:38.754Z,1.57
2019-06-10T02:42:16.800Z,1.40
2019-06-10T02:44:44.723Z,1.57
2019-06-10T02:47:18.281Z,1.50
2019-06-10T02:49:56.859Z,1.37
2019-06-10T02:52:22.829Z,1.87
2019-06-10T02:54:53.505Z,1.57
2019-06-10T02:57:29.504Z,1.70
2019-06-10T02:59:54.394Z,1.63
2019-06-10T03:02:30.080Z,1.40
2019-06-10T03:04:55.110Z,1.60
2019-06-10T03:07:28.791Z,1.60
2019-06-10T03:09:55.577Z,1.40
2019-06-10T03:12:25.922Z,1.70
2019-06-10T03:14:55.404Z,1.60
2019-06-10T03:17:26.562Z,1.83
2019-06-10T03:19:55.984Z,1.50
2019-06-10T03:22:25.920Z,1.70
2019-06-10T03:24:55.316Z,1.50
2019-06-10T03:27:26.603Z,1.30
2019-06-10T03:29:55.788Z,1.53
2019-06-10T03:32:33.215Z,1.30
2019-06-10T03:34:56.260Z,1.60
2019-06-10T03:37:27.390Z,1.40
2019-06-10T03:39:56.742Z,1.37
2019-06-10T03:42:27.801Z,1.40
2019-06-10T03:44:57.228Z,1.50
2019-06-10T03:47:28.460Z,1.50
2019-06-10T03:49:57.699Z,1.43
2019-06-10T03:52:28.398Z,1.53
2019-06-10T03:54:57.947Z,1.40
2019-06-10T03:57:28.679Z,1.33
2019-06-10T03:59:58.174Z,1.50
2019-06-10T04:02:28.529Z,1.57
2019-06-10T04:04:58.010Z,1.50
2019-06-10T04:07:30.658Z,1.67
2019-06-10T04:09:58.524Z,1.40
2019-06-10T04:12:29.161Z,1.40
2019-06-10T04:14:58.570Z,1.30
2019-06-10T04:17:28.787Z,1.40
2019-06-10T04:20:09.412Z,1.60
2019-06-10T04:22:29.421Z,1.70
2019-06-10T04:24:58.808Z,2.63
2019-06-10T04:27:28.499Z,1.60
2019-06-10T04:29:57.938Z,1.67
2019-06-10T04:32:27.772Z,1.60
2019-06-10T04:34:58.479Z,2.10
2019-06-10T04:37:29.423Z,1.87
2019-06-10T04:39:59.039Z,1.73
2019-06-10T04:42:28.976Z,1.83
2019-06-10T04:44:58.647Z,1.70
2019-06-10T04:47:29.559Z,1.53
2019-06-10T04:49:58.987Z,1.90
2019-06-10T04:52:29.668Z,1.73
2019-06-10T04:54:59.458Z,2.07
2019-06-10T04:57:29.671Z,1.80
2019-06-10T04:59:59.264Z,1.97
2019-06-10T05:02:30.068Z,1.90
2019-06-10T05:04:59.742Z,1.63
2019-06-10T05:07:36.006Z,2.23
2019-06-10T05:10:00.217Z,1.73
2019-06-10T05:12:29.713Z,1.83
2019-06-10T05:14:59.148Z,2.20
2019-06-10T05:17:30.637Z,1.87
2019-06-10T05:20:02.276Z,1.70
2019-06-10T05:22:32.785Z,1.70
2019-06-10T05:25:02.473Z,1.57
2019-06-10T05:27:33.006Z,1.47
2019-06-10T05:30:03.167Z,1.50
2019-06-10T05:32:33.406Z,1.30
2019-06-10T05:35:03.670Z,1.60
2019-06-10T05:37:33.876Z,1.70
2019-06-10T05:40:06.040Z,1.93
2019-06-10T05:42:36.146Z,1.40
2019-06-10T05:45:08.738Z,1.70
2019-06-10T05:47:38.097Z,1.40
2019-06-10T05:50:08.880Z,1.70
2019-06-10T05:52:38.268Z,1.50
2019-06-10T05:55:07.888Z,1.53
2019-06-10T05:57:37.295Z,1.60
2019-06-10T06:00:14.132Z,1.40
2019-06-10T06:02:43.265Z,1.47
2019-06-10T06:05:13.400Z,1.27
2019-06-10T06:07:42.772Z,1.33
2019-06-10T06:10:14.256Z,1.40
2019-06-10T06:12:43.632Z,1.43
2019-06-10T06:15:13.715Z,1.30
2019-06-10T06:17:43.398Z,1.27
2019-06-10T06:20:13.563Z,1.30
2019-06-10T06:22:43.002Z,1.15
2019-06-10T06:25:15.309Z,1.12
2019-06-10T06:27:44.538Z,1.25
2019-06-10T06:30:18.667Z,1.40
2019-06-10T06:32:47.219Z,1.25
2019-06-10T06:35:16.763Z,1.55
2019-06-10T06:37:46.139Z,1.10
2019-06-10T06:40:16.727Z,1.10
2019-06-10T06:42:46.104Z,1.10
2019-06-10T06:45:17.090Z,1.20
2019-06-10T06:47:46.470Z,1.30
2019-06-10T06:50:16.459Z,1.30
2019-06-10T06:53:15.135Z,1.20
2019-06-10T06:55:18.433Z,1.50
2019-06-10T06:57:47.807Z,1.20
2019-06-10T07:00:38.662Z,1.15
2019-06-10T07:02:49.890Z,1.10
2019-06-10T07:05:19.338Z,1.00
2019-06-10T07:07:48.957Z,1.52
2019-06-10T07:10:18.333Z,2.40
2019-06-10T07:12:52.330Z,1.80
2019-06-10T07:15:26.361Z,1.30
2019-06-10T07:17:55.739Z,1.27
2019-06-10T07:20:25.189Z,1.15
2019-06-10T07:22:54.566Z,1.30
2019-06-10T07:25:23.949Z,1.17
2019-06-10T07:27:53.358Z,1.82
2019-06-10T07:30:23.066Z,6.70
2019-06-10T07:32:52.875Z,10.35
2019-06-10T07:35:22.381Z,3.40
2019-06-10T07:37:52.348Z,1.70
2019-06-10T07:40:22.296Z,1.20
2019-06-10T07:42:53.079Z,1.65
2019-06-10T07:45:22.582Z,1.40
2019-06-10T07:47:52.366Z,1.15
2019-06-10T07:50:22.786Z,1.00
2019-06-10T07:52:52.879Z,1.00
2019-06-10T07:55:22.544Z,1.30
2019-06-10T07:57:53.064Z,1.05
2019-06-10T08:00:24.878Z,1.25
2019-06-10T08:02:54.297Z,1.02
2019-06-10T08:05:23.734Z,1.15
2019-06-10T08:07:54.763Z,1.20
2019-06-10T08:10:25.904Z,1.00
2019-06-10T08:12:55.289Z,2.20
2019-06-10T08:15:24.669Z,1.70
2019-06-10T08:17:54.037Z,1.30
2019-06-10T08:20:43.523Z,0.95
2019-06-10T08:23:13.402Z,1.17
2019-06-10T08:25:46.794Z,1.07
2019-06-10T08:28:15.465Z,1.05
2019-06-10T08:30:46.347Z,0.80
2019-06-10T08:33:16.023Z,1.30
2019-06-10T08:35:54.916Z,1.12
2019-06-10T08:38:16.804Z,1.10
2019-06-10T08:40:48.391Z,1.10
2019-06-10T08:43:17.583Z,1.00
2019-06-10T08:45:48.719Z,2.42
2019-06-10T08:48:18.286Z,1.30
2019-06-10T08:50:49.882Z,1.32
2019-06-10T08:53:18.899Z,1.00
2019-06-10T08:55:50.127Z,1.60
2019-06-10T08:58:19.368Z,1.45
2019-06-10T09:00:49.529Z,1.17
2019-06-10T09:03:19.000Z,1.17
2019-06-10T09:05:51.763Z,1.17
2019-06-10T09:08:23.400Z,1.00
2019-06-10T09:10:54.947Z,0.93
2019-06-10T09:13:23.240Z,1.10
2019-06-10T09:16:10.070Z,0.90
2019-06-10T09:18:23.717Z,0.80
2019-06-10T09:20:55.998Z,1.22
2019-06-10T09:23:25.651Z,1.20
2019-06-10T09:25:57.579Z,1.07
2019-06-10T09:28:27.208Z,1.10
2019-06-10T09:30:59.127Z,0.98
2019-06-10T09:33:27.870Z,0.93
2019-06-10T09:35:57.328Z,1.20
2019-06-10T09:38:26.698Z,1.17
2019-06-10T09:41:01.933Z,1.00
2019-06-10T09:43:27.321Z,1.40
2019-06-10T09:45:56.982Z,1.20
2019-06-10T09:48:27.503Z,1.10
2019-06-10T09:50:58.945Z,1.30
2019-06-10T09:53:35.042Z,1.30
2019-06-10T09:55:59.208Z,1.60
2019-06-10T09:58:28.651Z,1.05
2019-06-10T10:00:59.638Z,1.35
2019-06-10T10:03:29.028Z,0.95
2019-06-10T10:06:10.066Z,1.30
2019-06-10T10:08:29.799Z,1.17
2019-06-10T10:10:59.497Z,1.15
2019-06-10T10:13:29.120Z,1.30
2019-06-10T10:15:58.592Z,1.27
2019-06-10T10:18:27.972Z,1.20
2019-06-10T10:21:00.335Z,1.47
2019-06-10T10:23:28.672Z,1.30
2019-06-10T10:25:58.051Z,1.22
2019-06-10T10:28:27.424Z,1.17
2019-06-10T10:30:58.157Z,1.07
2019-06-10T10:33:30.149Z,1.35
2019-06-10T10:35:58.767Z,1.65
2019-06-10T10:38:28.144Z,1.55
2019-06-10T10:40:59.193Z,1.37
2019-06-10T10:43:34.252Z,1.80
2019-06-10T10:46:05.051Z,2.00
2019-06-10T10:48:34.081Z,1.40
2019-06-10T10:51:03.600Z,2.02
2019-06-10T10:53:33.297Z,2.52
2019-06-10T10:56:03.349Z,1.82
2019-06-10T10:58:33.499Z,1.42
2019-06-10T11:01:04.020Z,1.17
2019-06-10T11:03:34.343Z,1.87
2019-06-10T11:06:03.776Z,1.40
2019-06-10T11:08:33.940Z,1.22
2019-06-10T11:11:05.127Z,1.50
2019-06-10T11:13:37.129Z,1.37
2019-06-10T11:16:07.085Z,1.20
2019-06-10T11:18:36.578Z,1.35
2019-06-10T11:21:07.659Z,1.52
2019-06-10T11:23:37.121Z,1.60
2019-06-10T11:26:06.495Z,1.40
2019-06-10T11:28:35.877Z,2.00
2019-06-10T11:31:06.064Z,1.75
2019-06-10T11:33:35.443Z,1.50
2019-06-10T11:36:05.190Z,1.50
2019-06-10T11:38:34.734Z,2.87
2019-06-10T11:41:04.186Z,2.25
2019-06-10T11:43:33.571Z,1.98
2019-06-10T11:46:07.184Z,1.70
2019-06-10T11:48:34.070Z,1.77
2019-06-10T11:51:04.513Z,1.45
2019-06-10T11:53:34.750Z,1.90
2019-06-10T11:56:04.479Z,1.30
2019-06-10T11:58:33.867Z,1.30
2019-06-10T12:01:04.154Z,1.50
2019-06-10T12:03:33.701Z,1.60
2019-06-10T12:06:05.219Z,1.67
2019-06-10T12:08:34.174Z,1.50
2019-06-10T12:11:03.550Z,1.62
2019-06-10T12:13:34.437Z,1.47
2019-06-10T12:16:51.047Z,1.47
2019-06-10T12:18:35.838Z,1.72
2019-06-10T12:21:06.695Z,1.55
2019-06-10T12:23:36.028Z,1.90
2019-06-10T12:26:05.679Z,1.22
2019-06-10T12:28:35.198Z,1.57
2019-06-10T12:31:07.259Z,1.65
2019-06-10T12:33:35.978Z,1.57
2019-06-10T12:36:07.188Z,1.05
2019-06-10T12:38:36.751Z,1.40
2019-06-10T12:41:13.074Z,1.55
2019-06-10T12:43:43.035Z,1.30
2019-06-10T12:46:12.805Z,1.67
2019-06-10T12:48:42.853Z,1.40
2019-06-10T12:51:13.605Z,1.37
2019-06-10T12:53:43.634Z,1.40
2019-06-10T12:56:15.018Z,1.30
2019-06-10T12:58:44.149Z,1.50
2019-06-10T13:01:15.292Z,1.52
2019-06-10T13:03:44.748Z,1.30
2019-06-10T13:06:15.842Z,1.30
2019-06-10T13:08:46.753Z,1.80
2019-06-10T13:11:16.127Z,1.70
2019-06-10T13:13:45.513Z,1.55
2019-06-10T13:16:14.903Z,1.20
2019-06-10T13:18:44.329Z,1.30
2019-06-10T13:21:17.557Z,1.37
2019-06-10T13:23:44.813Z,1.50
2019-06-10T13:26:16.628Z,2.65
2019-06-10T13:28:45.289Z,1.72
2019-06-10T13:31:14.665Z,1.98
2019-06-10T13:33:44.334Z,1.37
2019-06-10T13:36:13.753Z,1.40
2019-06-10T13:38:43.487Z,1.37
2019-06-10T13:41:12.866Z,1.40
2019-06-10T13:43:43.415Z,1.32
2019-06-10T13:46:13.243Z,1.35
2019-06-10T13:48:43.218Z,1.85
2019-06-10T13:51:15.588Z,1.60
2019-06-10T13:53:46.209Z,1.47
2019-06-10T13:56:37.785Z,1.80
2019-06-10T13:58:46.552Z,1.45
2019-06-10T14:01:21.355Z,4.05
2019-06-10T14:03:47.130Z,1.82
2019-06-10T14:06:32.625Z,1.85
2019-06-10T14:08:47.677Z,2.00
2019-06-10T14:11:18.700Z,1.95
2019-06-10T14:13:48.156Z,1.57
2019-06-10T14:16:17.530Z,1.90
2019-06-10T14:18:47.140Z,1.80
2019-06-10T14:21:18.383Z,2.20
2019-06-10T14:23:47.619Z,1.98
2019-06-10T14:26:18.522Z,1.87
2019-06-10T14:28:48.101Z,2.20
2019-06-10T14:31:38.590Z,1.87
2019-06-10T14:33:48.579Z,2.40
2019-06-10T14:36:17.957Z,2.45
2019-06-10T14:38:47.331Z,2.58
2019-06-10T14:41:16.708Z,2.22
2019-06-10T14:43:46.077Z,1.95
2019-06-10T14:46:17.391Z,2.30
2019-06-10T14:48:46.583Z,2.30
2019-06-10T14:51:17.183Z,2.55
2019-06-10T14:53:46.714Z,2.40
2019-06-10T14:56:18.959Z,2.30
2019-06-10T14:58:47.367Z,2.17
2019-06-10T15:01:21.946Z,2.25
2019-06-10T15:03:48.089Z,1.70
2019-06-10T15:06:17.464Z,2.00
2019-06-10T15:08:47.113Z,2.30
2019-06-10T15:11:16.492Z,2.77
2019-06-10T15:13:45.869Z,2.45
2019-06-10T15:16:16.503Z,1.80
2019-06-10T15:18:46.000Z,2.22
2019-06-10T15:21:15.377Z,1.77
2019-06-10T15:23:44.822Z,1.85
2019-06-10T15:26:16.147Z,2.05
2019-06-10T15:28:45.294Z,2.17
2019-06-10T15:31:16.362Z,2.30
2019-06-10T15:33:45.776Z,2.40
2019-06-10T15:36:15.344Z,2.20
2019-06-10T15:38:44.703Z,2.95
2019-06-10T15:41:17.905Z,2.47
2019-06-10T15:43:45.287Z,2.33
2019-06-10T15:46:16.326Z,2.83
2019-06-10T15:48:45.771Z,2.55
2019-06-10T15:51:18.535Z,2.47
2019-06-10T15:53:46.270Z,1.92
2019-06-10T15:56:27.040Z,2.30
2019-06-10T15:58:46.911Z,2.50
2019-06-10T16:01:20.039Z,2.70
2019-06-10T16:03:47.421Z,2.65
2019-06-10T16:06:18.061Z,2.40
2019-06-10T16:08:47.446Z,2.67
2019-06-10T16:11:18.872Z,2.60
2019-06-10T16:13:47.994Z,2.50
2019-06-10T16:16:17.358Z,3.50
2019-06-10T16:18:46.755Z,3.35
2019-06-10T16:21:17.414Z,3.30
2019-06-10T16:23:47.479Z,2.12
2019-06-10T16:26:17.965Z,2.62
2019-06-10T16:28:47.414Z,2.30
2019-06-10T16:31:16.811Z,2.65
2019-06-10T16:33:49.329Z,2.25
2019-06-10T16:36:17.317Z,2.37
2019-06-10T16:38:46.651Z,2.00
2019-06-10T16:41:17.437Z,2.75
2019-06-10T16:43:46.892Z,3.08
2019-06-10T16:46:16.336Z,2.55
2019-06-10T16:48:45.708Z,2.30
2019-06-10T16:51:15.085Z,2.05
2019-06-10T16:53:44.540Z,2.05
2019-06-10T16:56:13.916Z,2.27
2019-06-10T16:58:43.394Z,2.27
2019-06-10T17:01:12.753Z,4.25
2019-06-10T17:03:42.619Z,3.25
2019-06-10T17:06:13.080Z,1.90
2019-06-10T17:08:42.979Z,2.22
2019-06-10T17:11:12.581Z,2.20
2019-06-10T17:13:42.404Z,1.60
2019-06-10T17:16:12.684Z,2.00
2019-06-10T17:18:42.326Z,1.62
2019-06-10T17:21:13.222Z,1.82
2019-06-10T17:23:43.371Z,2.00
2019-06-10T17:26:12.900Z,2.05
2019-06-10T17:28:42.948Z,2.05
2019-06-10T17:31:12.440Z,2.05
2019-06-10T17:33:42.735Z,2.00
2019-06-10T17:36:12.706Z,1.92
2019-06-10T17:38:42.940Z,1.92
2019-06-10T17:41:13.409Z,3.30
2019-06-10T17:43:43.051Z,4.70
2019-06-10T17:46:14.153Z,2.50
2019-06-10T17:48:43.531Z,2.40
2019-06-10T17:51:12.921Z,2.20
2019-06-10T17:53:42.804Z,2.10
2019-06-10T17:56:13.314Z,2.20
2019-06-10T17:58:53.397Z,2.83
2019-06-10T18:01:14.342Z,2.70
2019-06-10T18:03:43.716Z,3.50
2019-06-10T18:06:13.403Z,2.30
2019-06-10T18:08:43.092Z,3.90
2019-06-10T18:11:12.922Z,3.72
2019-06-10T18:13:43.036Z,2.72
2019-06-10T18:16:13.162Z,2.58
2019-06-10T18:18:42.785Z,2.47
2019-06-10T18:21:12.834Z,2.17
2019-06-10T18:23:43.511Z,3.60
2019-06-10T18:26:13.124Z,2.37
2019-06-10T18:29:00.254Z,2.30
2019-06-10T18:31:13.720Z,2.70
2019-06-10T18:33:43.097Z,2.67
2019-06-10T18:36:12.480Z,2.77
2019-06-10T18:38:43.310Z,2.75
2019-06-10T18:41:13.007Z,3.08
2019-06-10T18:43:42.480Z,3.08
2019-06-10T18:46:12.778Z,3.02
2019-06-10T18:48:43.163Z,4.12
2019-06-10T18:51:12.778Z,3.37
2019-06-10T18:53:42.701Z,3.08
2019-06-10T18:56:12.874Z,3.45
2019-06-10T18:58:42.714Z,3.42
2019-06-10T19:01:12.624Z,3.33
2019-06-10T19:03:42.930Z,3.08
2019-06-10T19:06:12.844Z,3.05
2019-06-10T19:08:44.261Z,3.70
2019-06-10T19:11:13.370Z,3.25
2019-06-10T19:13:43.591Z,3.70
2019-06-10T19:16:13.279Z,3.55
2019-06-10T19:18:43.357Z,3.40
2019-06-10T19:21:13.230Z,3.40
2019-06-10T19:23:43.876Z,3.50
2019-06-10T19:26:13.767Z,3.20
2019-06-10T19:28:45.072Z,3.47
2019-06-10T19:31:14.516Z,3.42
2019-06-10T19:33:45.163Z,3.47
2019-06-10T19:36:14.962Z,3.40
2019-06-10T19:38:44.504Z,3.77
2019-06-10T19:41:13.998Z,3.80
2019-06-10T19:43:45.304Z,3.70
2019-06-10T19:46:14.477Z,4.15
2019-06-10T19:48:55.531Z,4.37
2019-06-10T19:51:14.981Z,4.95
2019-06-10T19:53:45.175Z,4.10
2019-06-10T19:56:14.597Z,4.03
2019-06-10T19:58:46.271Z,3.17
2019-06-10T20:01:15.086Z,3.70
2019-06-10T20:03:46.481Z,4.00
2019-06-10T20:06:15.584Z,3.92
2019-06-10T20:08:46.308Z,3.58
2019-06-10T20:11:15.705Z,3.52
2019-06-10T20:13:46.907Z,4.55
2019-06-10T20:16:16.652Z,5.47
2019-06-10T20:18:48.276Z,5.75
2019-06-10T20:21:18.079Z,5.70
2019-06-10T20:23:47.844Z,5.90
2019-06-10T20:26:17.360Z,5.37
2019-06-10T20:28:51.945Z,5.42
2019-06-10T20:31:17.906Z,5.03
2019-06-10T20:33:47.283Z,5.30
2019-06-10T20:36:22.549Z,4.62
2019-06-10T20:38:48.857Z,3.20
2019-06-10T20:41:18.771Z,3.45
2019-06-10T20:43:48.148Z,2.58
2019-06-10T20:46:17.527Z,2.30
2019-06-10T20:48:49.331Z,1.83
2019-06-10T20:51:18.003Z,1.57
2019-06-10T20:53:49.117Z,1.20
2019-06-10T20:56:20.376Z,1.20
2019-06-10T20:58:50.410Z,1.37
2019-06-10T21:01:25.169Z,1.27
2019-06-10T21:03:54.224Z,1.10
2019-06-10T21:06:24.611Z,1.20
2019-06-10T21:08:55.844Z,1.20
2019-06-10T21:11:25.222Z,1.27
2019-06-10T21:13:55.722Z,1.20
2019-06-10T21:16:25.344Z,1.33
2019-06-10T21:18:55.710Z,1.60
2019-06-10T21:21:25.272Z,1.57
2019-06-10T21:23:54.670Z,1.40
2019-06-10T21:26:24.089Z,1.80
2019-06-10T21:28:55.181Z,1.77
2019-06-10T21:31:24.791Z,1.97
2019-06-10T21:33:55.712Z,2.63
2019-06-10T21:36:25.426Z,2.10
2019-06-10T21:38:55.958Z,2.93
2019-06-10T21:41:25.492Z,2.67
2019-06-10T21:43:59.353Z,2.77
2019-06-10T21:46:26.597Z,3.00
2019-06-10T21:48:56.190Z,2.93
2019-06-10T21:51:25.702Z,3.93
2019-06-10T21:53:55.361Z,3.07
2019-06-10T21:56:24.796Z,3.50
2019-06-10T21:58:55.689Z,3.37
2019-06-10T22:01:25.459Z,3.90
2019-06-10T22:04:00.640Z,3.67
2019-06-10T22:06:26.007Z,4.20
2019-06-10T22:08:56.649Z,3.70
2019-06-10T22:11:26.137Z,3.83
2019-06-10T22:13:56.338Z,3.60
2019-06-10T22:16:25.863Z,4.00
2019-06-10T22:18:55.327Z,4.70
2019-06-10T22:21:24.861Z,4.10
2019-06-10T22:23:56.923Z,4.67
2019-06-10T22:26:25.330Z,4.90
2019-06-10T22:28:57.524Z,4.60
2019-06-10T22:31:26.575Z,4.80
2019-06-10T22:33:57.575Z,4.80
2019-06-10T22:36:27.144Z,5.33
2019-06-10T22:38:58.972Z,5.53
2019-06-10T22:41:27.647Z,5.93
2019-06-10T22:43:57.540Z,6.20
2019-06-10T22:46:27.071Z,7.07
2019-06-10T22:48:57.020Z,7.30
2019-06-10T22:51:26.387Z,6.83
2019-06-10T22:53:58.418Z,7.63
2019-06-10T22:56:26.858Z,7.20
2019-06-10T22:58:57.323Z,7.47
2019-06-10T23:01:34.249Z,7.47
2019-06-10T23:03:58.020Z,7.10
2019-06-10T23:06:27.400Z,7.17
2019-06-10T23:08:58.137Z,7.20
2019-06-10T23:11:27.863Z,6.57
2019-06-10T23:13:58.455Z,7.47
2019-06-10T23:16:28.331Z,6.83
2019-06-10T23:18:58.365Z,7.43
2019-06-10T23:21:28.837Z,8.87
2019-06-10T23:23:58.612Z,7.30
2019-06-10T23:26:28.031Z,7.30
2019-06-10T23:28:58.800Z,7.33
2019-06-10T23:31:28.457Z,7.87
2019-06-10T23:33:57.814Z,7.70
2019-06-10T23:36:27.194Z,8.03
2019-06-10T23:38:57.051Z,7.77
2019-06-10T23:41:26.531Z,9.10
2019-06-10T23:43:56.945Z,8.07
2019-06-10T23:46:26.464Z,8.50
2019-06-10T23:48:55.847Z,9.27
2019-06-10T23:51:25.232Z,8.87
2019-06-10T23:53:58.353Z,9.37
2019-06-10T23:56:25.921Z,9.23
2019-06-10T23:58:55.949Z,8.90
